createdAt,value
2018-04-12T00:00:38.272Z,30.93
2018-04-12T00:03:10.815Z,24.03
2018-04-12T00:05:43.307Z,27.13
2018-04-12T00:08:15.847Z,31.67
2018-04-12T00:10:48.442Z,24.77
2018-04-12T00:13:20.956Z,23.87
2018-04-12T00:15:53.451Z,40.67
2018-04-12T00:18:25.994Z,35.60
2018-04-12T00:20:58.481Z,24.40
2018-04-12T00:23:30.994Z,23.53
2018-04-12T00:26:03.553Z,23.07
2018-04-12T00:28:36.077Z,23.00
2018-04-12T00:31:08.567Z,31.83
2018-04-12T00:33:41.096Z,32.07
2018-04-12T00:36:13.596Z,32.67
2018-04-12T00:38:46.117Z,27.10
2018-04-12T00:41:18.666Z,25.53
2018-04-12T00:43:51.226Z,31.33
2018-04-12T00:46:23.822Z,26.67
2018-04-12T00:48:56.346Z,25.83
2018-04-12T00:51:28.841Z,21.33
2018-04-12T00:54:06.419Z,27.70
2018-04-12T00:56:43.378Z,18.37
2018-04-12T00:59:15.897Z,27.30
2018-04-12T01:01:48.393Z,29.87
2018-04-12T01:04:20.938Z,22.10
2018-04-12T01:06:53.433Z,21.53
2018-04-12T01:09:25.939Z,22.37
2018-04-12T01:11:58.437Z,26.77
2018-04-12T01:14:30.946Z,21.93
2018-04-12T01:17:03.434Z,27.80
2018-04-12T01:19:35.975Z,21.83
2018-04-12T01:22:08.541Z,21.27
2018-04-12T01:24:41.055Z,25.83
2018-04-12T01:27:13.552Z,27.33
2018-04-12T01:29:46.082Z,23.70
2018-04-12T01:32:18.600Z,20.27
2018-04-12T01:34:51.143Z,25.20
2018-04-12T01:37:23.644Z,24.97
2018-04-12T01:39:56.160Z,23.33
2018-04-12T01:42:28.768Z,22.83
2018-04-12T01:45:01.286Z,16.67
2018-04-12T01:47:33.781Z,22.43
2018-04-12T01:50:06.350Z,23.33
2018-04-12T01:52:38.835Z,29.13
2018-04-12T01:55:11.346Z,21.83
2018-04-12T01:57:43.880Z,23.73
2018-04-12T02:00:16.398Z,23.60
2018-04-12T02:02:48.906Z,19.43
2018-04-12T02:05:21.456Z,26.77
2018-04-12T02:07:53.985Z,26.03
2018-04-12T02:10:26.479Z,20.23
2018-04-12T02:12:58.995Z,20.53
2018-04-12T02:15:31.492Z,21.07
2018-04-12T02:18:04.087Z,24.97
2018-04-12T02:20:36.583Z,25.07
2018-04-12T02:23:09.091Z,23.70
2018-04-12T02:25:41.582Z,22.20
2018-04-12T02:28:14.104Z,21.00
2018-04-12T02:30:46.595Z,22.60
2018-04-12T02:33:19.101Z,24.70
2018-04-12T02:35:51.830Z,23.37
2018-04-12T02:38:24.347Z,23.23
2018-04-12T02:40:56.951Z,20.30
2018-04-12T02:43:29.473Z,20.67
2018-04-12T02:46:01.970Z,23.43
2018-04-12T02:48:34.491Z,25.77
2018-04-12T02:51:07.080Z,19.63
2018-04-12T02:53:39.590Z,21.40
2018-04-12T02:56:12.155Z,17.43
2018-04-12T02:58:44.740Z,23.07
2018-04-12T03:01:17.232Z,25.80
2018-04-12T03:03:49.746Z,23.03
2018-04-12T03:06:22.234Z,23.40
2018-04-12T03:08:54.747Z,21.00
2018-04-12T03:11:27.248Z,23.97
2018-04-12T03:13:59.751Z,21.57
2018-04-12T03:16:32.335Z,23.93
2018-04-12T03:19:04.844Z,32.43
2018-04-12T03:21:37.419Z,20.23
2018-04-12T03:24:10.072Z,25.10
2018-04-12T03:26:42.591Z,25.20
2018-04-12T03:29:15.102Z,26.00
2018-04-12T03:31:47.595Z,26.33
2018-04-12T03:34:20.103Z,22.00
2018-04-12T03:36:52.638Z,26.47
2018-04-12T03:39:25.165Z,24.07
2018-04-12T03:41:57.697Z,21.83
2018-04-12T03:44:30.228Z,28.17
2018-04-12T03:47:02.764Z,27.37
2018-04-12T03:49:35.369Z,25.63
2018-04-12T03:52:07.947Z,27.10
2018-04-12T03:54:40.463Z,32.97
2018-04-12T03:57:12.948Z,33.20
2018-04-12T03:59:45.455Z,34.80
2018-04-12T04:02:17.952Z,21.43
2018-04-12T04:04:50.459Z,27.03
2018-04-12T04:07:22.974Z,26.53
2018-04-12T04:09:55.544Z,28.03
2018-04-12T04:12:28.035Z,27.77
2018-04-12T04:15:21.227Z,26.10
2018-04-12T04:18:05.552Z,36.87
2018-04-12T04:20:49.833Z,34.77
2018-04-12T04:23:22.282Z,27.73
2018-04-12T04:25:54.805Z,32.37
2018-04-12T04:28:27.299Z,32.10
2018-04-12T04:30:59.802Z,32.43
2018-04-12T04:33:32.303Z,24.80
2018-04-12T04:36:04.824Z,24.53
2018-04-12T04:38:37.315Z,22.17
2018-04-12T04:41:09.821Z,32.07
2018-04-12T04:43:42.315Z,25.17
2018-04-12T04:46:14.860Z,29.20
2018-04-12T04:48:47.354Z,25.47
2018-04-12T04:51:19.887Z,29.03
2018-04-12T04:53:52.420Z,23.87
2018-04-12T04:56:24.935Z,30.83
2018-04-12T04:58:57.473Z,29.70
2018-04-12T05:01:29.982Z,26.27
2018-04-12T05:04:02.492Z,27.97
2018-04-12T05:06:34.983Z,24.37
2018-04-12T05:09:07.492Z,32.57
2018-04-12T05:11:39.987Z,38.10
2018-04-12T05:14:12.535Z,20.57
2018-04-12T05:16:45.059Z,21.47
2018-04-12T05:19:17.573Z,27.33
2018-04-12T05:21:50.071Z,20.50
2018-04-12T05:24:22.627Z,21.80
2018-04-12T05:26:55.228Z,25.97
2018-04-12T05:29:27.735Z,21.73
2018-04-12T05:32:00.330Z,19.90
2018-04-12T05:34:32.831Z,24.87
2018-04-12T05:37:05.347Z,31.37
2018-04-12T05:39:37.860Z,18.07
2018-04-12T05:42:10.365Z,24.37
2018-04-12T05:44:42.885Z,22.53
2018-04-12T05:47:15.375Z,22.57
2018-04-12T05:49:47.878Z,19.87
2018-04-12T05:52:20.371Z,29.73
2018-04-12T05:54:52.948Z,28.87
2018-04-12T05:57:25.442Z,33.20
2018-04-12T05:59:57.960Z,30.43
2018-04-12T06:02:30.448Z,34.87
2018-04-12T06:05:02.963Z,28.77
2018-04-12T06:07:35.459Z,31.53
2018-04-12T06:10:08.055Z,24.30
2018-04-12T06:12:40.649Z,28.83
2018-04-12T06:15:13.184Z,34.73
2018-04-12T06:17:45.686Z,27.37
2018-04-12T06:20:18.280Z,30.00
2018-04-12T06:22:50.794Z,25.53
2018-04-12T06:25:23.308Z,31.07
2018-04-12T06:27:55.868Z,25.67
2018-04-12T06:30:28.390Z,31.93
2018-04-12T06:33:00.878Z,29.60
2018-04-12T06:35:33.404Z,34.63
2018-04-12T06:38:05.900Z,31.20
2018-04-12T06:40:38.479Z,28.50
2018-04-12T06:43:10.971Z,30.30
2018-04-12T06:45:43.554Z,30.73
2018-04-12T06:48:16.048Z,28.10
2018-04-12T06:50:48.570Z,25.90
2018-04-12T06:53:21.063Z,25.57
2018-04-12T06:55:53.574Z,24.50
2018-04-12T06:58:26.067Z,30.87
2018-04-12T07:00:58.584Z,29.20
2018-04-12T07:03:31.128Z,28.97
2018-04-12T07:06:03.640Z,29.83
2018-04-12T07:08:36.135Z,29.40
2018-04-12T07:11:08.693Z,31.73
2018-04-12T07:13:41.186Z,31.03
2018-04-12T07:16:13.707Z,26.77
2018-04-12T07:18:46.218Z,28.90
2018-04-12T07:21:18.796Z,27.33
2018-04-12T07:23:51.292Z,29.73
2018-04-12T07:26:23.811Z,29.70
2018-04-12T07:28:56.374Z,27.60
2018-04-12T07:31:28.893Z,28.53
2018-04-12T07:34:01.396Z,31.13
2018-04-12T07:36:33.917Z,25.23
2018-04-12T07:39:06.411Z,27.30
2018-04-12T07:41:38.923Z,30.77
2018-04-12T07:44:11.429Z,29.83
2018-04-12T07:46:43.993Z,30.73
2018-04-12T07:49:16.535Z,27.00
2018-04-12T07:51:49.053Z,26.80
2018-04-12T07:54:21.551Z,27.13
2018-04-12T07:56:54.067Z,30.80
2018-04-12T07:59:26.604Z,27.50
2018-04-12T08:01:59.119Z,25.77
2018-04-12T08:04:31.624Z,28.97
2018-04-12T08:07:04.143Z,26.27
2018-04-12T08:09:36.635Z,26.67
2018-04-12T08:12:09.148Z,26.57
2018-04-12T08:14:41.647Z,27.10
2018-04-12T08:17:14.167Z,27.00
2018-04-12T08:19:46.667Z,26.87
2018-04-12T08:22:19.276Z,27.77
2018-04-12T08:24:51.858Z,29.10
2018-04-12T08:27:24.451Z,27.50
2018-04-12T08:29:57.041Z,27.27
2018-04-12T08:32:29.567Z,26.03
2018-04-12T08:35:02.090Z,27.73
2018-04-12T08:37:34.593Z,25.67
2018-04-12T08:40:07.107Z,25.62
2018-04-12T08:42:39.600Z,24.02
2018-04-12T08:45:12.124Z,25.62
2018-04-12T08:47:44.621Z,26.02
2018-04-12T08:50:17.221Z,25.05
2018-04-12T08:52:49.818Z,23.58
2018-04-12T08:55:22.351Z,23.67
2018-04-12T08:57:54.851Z,23.00
2018-04-12T09:00:27.521Z,24.02
2018-04-12T09:03:00.006Z,23.45
2018-04-12T09:05:32.647Z,22.87
2018-04-12T09:08:05.154Z,22.45
2018-04-12T09:10:37.700Z,21.42
2018-04-12T09:13:10.291Z,21.50
2018-04-12T09:15:42.875Z,21.05
2018-04-12T09:18:15.386Z,23.05
2018-04-12T09:20:47.902Z,22.17
2018-04-12T09:23:20.401Z,23.02
2018-04-12T09:25:53.011Z,23.48
2018-04-12T09:28:25.523Z,21.33
2018-04-12T09:30:58.037Z,21.50
2018-04-12T09:33:31.543Z,21.23
2018-04-12T09:36:04.065Z,21.20
2018-04-12T09:38:36.558Z,20.48
2018-04-12T09:41:09.147Z,22.02
2018-04-12T09:43:41.728Z,20.20
2018-04-12T09:46:14.320Z,20.15
2018-04-12T09:48:46.816Z,20.67
2018-04-12T09:51:19.358Z,20.73
2018-04-12T09:53:51.859Z,21.00
2018-04-12T09:56:24.467Z,20.73
2018-04-12T09:58:57.056Z,20.70
2018-04-12T10:01:29.616Z,21.05
2018-04-12T10:04:02.107Z,20.30
2018-04-12T10:06:39.531Z,21.52
2018-04-12T10:09:14.999Z,20.83
2018-04-12T10:11:47.515Z,21.00
2018-04-12T10:14:20.013Z,20.83
2018-04-12T10:16:52.522Z,21.45
2018-04-12T10:19:27.111Z,20.17
2018-04-12T10:22:01.839Z,19.42
2018-04-12T10:24:34.909Z,22.67
2018-04-12T10:27:07.480Z,19.30
2018-04-12T10:29:40.072Z,21.00
2018-04-12T10:32:12.588Z,20.88
2018-04-12T10:34:45.098Z,21.10
2018-04-12T10:37:17.620Z,20.40
2018-04-12T10:39:50.205Z,20.77
2018-04-12T10:42:22.720Z,20.15
2018-04-12T10:44:55.217Z,19.67
2018-04-12T10:47:27.759Z,18.58
2018-04-12T10:50:00.291Z,22.05
2018-04-12T10:52:32.824Z,20.00
2018-04-12T10:55:05.419Z,19.17
2018-04-12T10:57:37.943Z,20.52
2018-04-12T11:00:10.447Z,19.52
2018-04-12T11:02:43.068Z,21.62
2018-04-12T11:05:15.567Z,19.15
2018-04-12T11:07:48.089Z,19.65
2018-04-12T11:10:20.634Z,18.60
2018-04-12T11:12:53.208Z,20.20
2018-04-12T11:15:25.712Z,21.20
2018-04-12T11:17:58.222Z,21.00
2018-04-12T11:20:30.715Z,21.00
2018-04-12T11:23:03.254Z,19.92
2018-04-12T11:25:35.855Z,19.27
2018-04-12T11:28:08.373Z,19.77
2018-04-12T11:30:40.907Z,19.55
2018-04-12T11:33:13.498Z,20.42
2018-04-12T11:35:46.088Z,19.75
2018-04-12T11:38:18.620Z,19.87
2018-04-12T11:40:51.111Z,20.90
2018-04-12T11:43:23.629Z,19.98
2018-04-12T11:45:56.127Z,23.10
2018-04-12T11:48:28.696Z,20.52
2018-04-12T11:51:02.115Z,21.17
2018-04-12T11:53:34.611Z,18.77
2018-04-12T11:56:07.133Z,21.10
2018-04-12T11:58:39.645Z,18.48
2018-04-12T12:01:12.154Z,20.70
2018-04-12T12:03:44.651Z,19.27
2018-04-12T12:06:17.163Z,19.27
2018-04-12T12:08:49.687Z,20.23
2018-04-12T12:11:22.211Z,20.05
2018-04-12T12:13:54.699Z,21.98
2018-04-12T12:16:27.211Z,20.80
2018-04-12T12:18:59.752Z,20.35
2018-04-12T12:21:32.258Z,19.65
2018-04-12T12:24:04.761Z,19.73
2018-04-12T12:26:37.386Z,19.62
2018-04-12T12:29:09.971Z,19.00
2018-04-12T12:31:42.490Z,20.33
2018-04-12T12:34:14.992Z,19.17
2018-04-12T12:36:47.503Z,19.85
2018-04-12T12:39:20.000Z,19.37
2018-04-12T12:41:52.519Z,20.08
2018-04-12T12:44:25.015Z,21.48
2018-04-12T12:46:57.564Z,20.35
2018-04-12T12:49:30.072Z,19.40
2018-04-12T12:52:02.588Z,17.45
2018-04-12T12:54:35.112Z,19.40
2018-04-12T12:57:07.628Z,17.73
2018-04-12T12:59:40.324Z,18.70
2018-04-12T13:02:12.835Z,18.67
2018-04-12T13:04:45.377Z,19.83
2018-04-12T13:07:17.903Z,17.87
2018-04-12T13:09:50.417Z,19.95
2018-04-12T13:12:22.928Z,19.25
2018-04-12T13:14:55.500Z,18.58
2018-04-12T13:17:28.014Z,18.65
2018-04-12T13:20:00.535Z,18.62
2018-04-12T13:22:33.155Z,19.83
2018-04-12T13:25:05.740Z,21.20
2018-04-12T13:27:38.262Z,19.60
2018-04-12T13:30:10.756Z,19.30
2018-04-12T13:32:43.274Z,18.87
2018-04-12T13:35:15.897Z,18.52
2018-04-12T13:37:48.411Z,21.87
2018-04-12T13:40:20.956Z,17.85
2018-04-12T13:42:53.490Z,17.85
2018-04-12T13:45:25.998Z,17.35
2018-04-12T13:47:58.512Z,20.27
2018-04-12T13:50:31.085Z,17.67
2018-04-12T13:53:03.608Z,17.58
2018-04-12T13:55:36.103Z,15.88
2018-04-12T13:58:08.640Z,22.35
2018-04-12T14:00:41.136Z,16.45
2018-04-12T14:03:13.659Z,15.63
2018-04-12T14:05:46.199Z,15.02
2018-04-12T14:08:18.785Z,13.93
2018-04-12T14:10:51.291Z,15.52
2018-04-12T14:13:23.816Z,14.32
2018-04-12T14:15:56.335Z,16.25
2018-04-12T14:18:28.858Z,17.42
2018-04-12T14:21:01.363Z,15.45
2018-04-12T14:23:34.033Z,15.57
2018-04-12T14:26:06.575Z,15.50
2018-04-12T14:28:39.163Z,14.65
2018-04-12T14:31:11.663Z,15.23
2018-04-12T14:33:44.238Z,14.00
2018-04-12T14:36:16.809Z,13.85
2018-04-12T14:38:49.291Z,14.40
2018-04-12T14:41:21.800Z,16.33
2018-04-12T14:43:54.316Z,16.87
2018-04-12T14:46:26.815Z,16.15
2018-04-12T14:48:59.326Z,13.62
2018-04-12T14:51:31.817Z,14.63
2018-04-12T14:54:04.410Z,13.77
2018-04-12T14:56:36.996Z,14.13
2018-04-12T14:59:09.575Z,13.90
2018-04-12T15:01:42.167Z,16.40
2018-04-12T15:04:14.682Z,15.20
2018-04-12T15:06:47.179Z,15.40
2018-04-12T15:09:19.700Z,15.60
2018-04-12T15:11:52.201Z,15.73
2018-04-12T15:14:24.787Z,15.65
2018-04-12T15:16:57.283Z,16.12
2018-04-12T15:19:29.800Z,16.05
2018-04-12T15:22:02.355Z,17.17
2018-04-12T15:24:34.980Z,16.48
2018-04-12T15:27:07.520Z,15.40
2018-04-12T15:29:40.015Z,16.12
2018-04-12T15:32:12.601Z,16.00
2018-04-12T15:34:45.047Z,16.17
2018-04-12T15:37:17.653Z,14.95
2018-04-12T15:39:50.152Z,16.65
2018-04-12T15:42:22.674Z,16.10
2018-04-12T15:44:55.308Z,16.05
2018-04-12T15:47:27.839Z,15.57
2018-04-12T15:50:00.396Z,13.68
2018-04-12T15:52:32.937Z,14.65
2018-04-12T15:55:05.566Z,15.13
2018-04-12T15:57:38.095Z,13.62
2018-04-12T16:00:10.619Z,15.60
2018-04-12T16:02:44.031Z,13.90
2018-04-12T16:05:16.530Z,13.32
2018-04-12T16:07:49.053Z,15.30
2018-04-12T16:10:21.583Z,14.18
2018-04-12T16:12:54.107Z,13.62
2018-04-12T16:15:26.661Z,13.25
2018-04-12T16:17:59.207Z,12.43
2018-04-12T16:20:32.103Z,11.88
2018-04-12T16:23:04.611Z,12.35
2018-04-12T16:25:37.108Z,11.48
2018-04-12T16:28:09.623Z,14.25
2018-04-12T16:30:42.128Z,12.75
2018-04-12T16:33:14.661Z,12.20
2018-04-12T16:35:47.240Z,10.85
2018-04-12T16:38:19.771Z,10.98
2018-04-12T16:40:52.303Z,12.50
2018-04-12T16:43:24.890Z,13.10
2018-04-12T16:45:57.470Z,14.70
2018-04-12T16:48:29.994Z,12.30
2018-04-12T16:51:02.535Z,11.30
2018-04-12T16:53:35.134Z,11.75
2018-04-12T16:56:07.642Z,10.85
2018-04-12T16:58:40.170Z,12.95
2018-04-12T17:01:12.691Z,10.38
2018-04-12T17:03:45.407Z,10.02
2018-04-12T17:06:17.913Z,13.40
2018-04-12T17:08:50.543Z,11.52
2018-04-12T17:11:23.033Z,12.30
2018-04-12T17:13:55.561Z,10.10
2018-04-12T17:16:28.046Z,10.50
2018-04-12T17:19:00.595Z,13.10
2018-04-12T17:21:33.090Z,11.12
2018-04-12T17:24:05.609Z,10.75
2018-04-12T17:26:38.146Z,13.90
2018-04-12T17:29:10.658Z,12.65
2018-04-12T17:31:43.155Z,11.85
2018-04-12T17:34:15.684Z,11.02
2018-04-12T17:36:48.184Z,11.35
2018-04-12T17:39:20.774Z,12.57
2018-04-12T17:41:53.376Z,11.35
2018-04-12T17:44:25.891Z,11.00
2018-04-12T17:46:59.404Z,10.90
2018-04-12T17:49:31.938Z,13.30
2018-04-12T17:52:04.439Z,10.50
2018-04-12T17:54:37.002Z,11.32
2018-04-12T17:57:09.498Z,10.90
2018-04-12T17:59:42.112Z,11.12
2018-04-12T18:02:14.668Z,11.50
2018-04-12T18:04:47.584Z,13.60
2018-04-12T18:07:20.474Z,11.23
2018-04-12T18:09:53.002Z,11.45
2018-04-12T18:12:25.514Z,10.73
2018-04-12T18:14:58.027Z,14.95
2018-04-12T18:17:30.562Z,23.95
2018-04-12T18:20:03.233Z,18.02
2018-04-12T18:22:35.771Z,14.05
2018-04-12T18:25:08.291Z,14.85
2018-04-12T18:27:40.787Z,13.57
2018-04-12T18:30:13.323Z,14.27
2018-04-12T18:32:45.821Z,15.95
2018-04-12T18:35:18.339Z,15.32
2018-04-12T18:37:50.834Z,19.40
2018-04-12T18:40:23.370Z,17.02
2018-04-12T18:42:55.871Z,17.23
2018-04-12T18:45:28.383Z,16.73
2018-04-12T18:48:01.172Z,17.27
2018-04-12T18:50:33.818Z,17.60
2018-04-12T18:53:06.519Z,17.85
2018-04-12T18:55:39.076Z,19.92
2018-04-12T18:58:11.581Z,18.08
2018-04-12T19:00:44.166Z,18.70
2018-04-12T19:03:16.730Z,20.08
2018-04-12T19:05:49.333Z,16.98
2018-04-12T19:08:21.847Z,16.83
2018-04-12T19:10:54.401Z,19.55
2018-04-12T19:13:26.991Z,18.00
2018-04-12T19:15:59.565Z,17.15
2018-04-12T19:18:32.061Z,17.23
2018-04-12T19:21:04.585Z,16.48
2018-04-12T19:23:37.089Z,15.90
2018-04-12T19:26:09.735Z,17.23
2018-04-12T19:28:42.426Z,17.98
2018-04-12T19:31:15.099Z,17.10
2018-04-12T19:33:47.602Z,16.30
2018-04-12T19:36:20.668Z,16.33
2018-04-12T19:38:53.267Z,18.20
2018-04-12T19:41:25.788Z,17.17
2018-04-12T19:43:58.289Z,17.52
2018-04-12T19:46:30.939Z,16.48
2018-04-12T19:49:03.464Z,17.17
2018-04-12T19:51:36.098Z,17.95
2018-04-12T19:54:08.680Z,16.85
2018-04-12T19:56:41.199Z,17.05
2018-04-12T19:59:13.748Z,17.23
2018-04-12T20:01:46.983Z,17.23
2018-04-12T20:04:19.510Z,16.35
2018-04-12T20:06:52.018Z,16.85
2018-04-12T20:09:24.519Z,18.80
2018-04-12T20:11:57.101Z,16.08
2018-04-12T20:14:29.595Z,17.75
2018-04-12T20:17:02.163Z,17.67
2018-04-12T20:19:34.672Z,17.60
2018-04-12T20:22:07.210Z,17.17
2018-04-12T20:24:39.715Z,18.02
2018-04-12T20:27:12.250Z,16.30
2018-04-12T20:29:44.778Z,17.20
2018-04-12T20:32:17.301Z,16.65
2018-04-12T20:34:49.816Z,17.20
2018-04-12T20:37:22.341Z,15.65
2018-04-12T20:39:54.840Z,17.15
2018-04-12T20:42:27.356Z,16.48
2018-04-12T20:44:59.878Z,15.80
2018-04-12T20:47:32.463Z,17.10
2018-04-12T20:50:04.961Z,16.65
2018-04-12T20:52:37.483Z,16.12
2018-04-12T20:55:10.035Z,15.65
2018-04-12T20:57:42.547Z,16.37
2018-04-12T21:00:15.039Z,16.05
2018-04-12T21:02:47.559Z,17.77
2018-04-12T21:05:20.366Z,15.90
2018-04-12T21:07:52.885Z,15.75
2018-04-12T21:10:25.379Z,14.27
2018-04-12T21:12:57.927Z,16.85
2018-04-12T21:15:30.611Z,16.98
2018-04-12T21:18:03.130Z,16.98
2018-04-12T21:20:35.686Z,15.70
2018-04-12T21:23:08.212Z,15.05
2018-04-12T21:25:40.734Z,18.17
2018-04-12T21:28:13.228Z,19.02
2018-04-12T21:30:45.755Z,15.40
2018-04-12T21:33:18.307Z,16.30
2018-04-12T21:35:50.911Z,15.45
2018-04-12T21:38:23.478Z,16.27
2018-04-12T21:40:56.063Z,15.70
2018-04-12T21:43:28.558Z,15.38
2018-04-12T21:46:01.083Z,16.15
2018-04-12T21:48:33.587Z,16.98
2018-04-12T21:51:06.228Z,17.40
2018-04-12T21:53:38.878Z,18.70
2018-04-12T21:56:11.401Z,17.12
2018-04-12T21:58:43.988Z,19.15
2018-04-12T22:01:16.506Z,16.85
2018-04-12T22:03:49.039Z,18.77
2018-04-12T22:06:21.624Z,19.23
2018-04-12T22:08:54.119Z,16.73
2018-04-12T22:11:26.649Z,17.25
2018-04-12T22:13:59.183Z,17.80
2018-04-12T22:16:31.704Z,19.10
2018-04-12T22:19:04.257Z,16.35
2018-04-12T22:21:36.776Z,18.30
2018-04-12T22:24:09.272Z,18.67
2018-04-12T22:26:41.788Z,21.98
2018-04-12T22:29:14.294Z,17.12
2018-04-12T22:31:47.428Z,23.95
2018-04-12T22:34:19.995Z,18.42
2018-04-12T22:36:52.554Z,20.40
2018-04-12T22:39:25.097Z,17.87
2018-04-12T22:41:57.668Z,20.20
2018-04-12T22:44:30.234Z,19.10
2018-04-12T22:47:02.747Z,19.42
2018-04-12T22:49:35.279Z,18.52
2018-04-12T22:52:07.865Z,22.67
2018-04-12T22:54:40.366Z,19.50
2018-04-12T22:57:12.940Z,20.17
2018-04-12T22:59:45.477Z,21.15
2018-04-12T23:02:18.005Z,21.42
2018-04-12T23:04:50.595Z,21.75
2018-04-12T23:07:23.121Z,23.08
2018-04-12T23:09:55.627Z,27.55
2018-04-12T23:12:28.256Z,29.65
2018-04-12T23:15:00.746Z,28.27
2018-04-12T23:17:33.330Z,30.55
2018-04-12T23:20:05.907Z,28.83
2018-04-12T23:22:38.500Z,27.92
2018-04-12T23:25:11.003Z,34.38
2018-04-12T23:27:43.509Z,27.70
2018-04-12T23:30:16.047Z,28.58
2018-04-12T23:32:48.564Z,28.92
2018-04-12T23:35:21.114Z,28.77
2018-04-12T23:37:53.640Z,31.55
2018-04-12T23:40:26.141Z,36.92
2018-04-12T23:42:58.769Z,29.50
2018-04-12T23:45:31.356Z,32.78
2018-04-12T23:48:03.871Z,32.25
2018-04-12T23:50:36.428Z,29.77
2018-04-12T23:53:08.955Z,31.80
2018-04-12T23:55:41.493Z,44.88
2018-04-12T23:58:14.098Z,27.87
